sensor_id;sensor_type;location;lat;lon;timestamp;P1;durP1;ratioP1;P2;durP2;ratioP2
5981;SDS011;3018;48.730;9.336;2024-02-15T00:02:23;7.53;;;4.63;;
5981;SDS011;3018;48.730;9.336;2024-02-15T00:04:49;6.38;;;4.38;;
5981;SDS011;3018;48.730;9.336;2024-02-15T00:07:17;9.23;;;4.85;;
5981;SDS011;3018;48.730;9.336;2024-02-15T00:09:47;8.10;;;4.70;;
5981;SDS011;3018;48.730;9.336;2024-02-15T00:12:13;6.10;;;4.63;;
5981;SDS011;3018;48.730;9.336;2024-02-15T00:14:39;8.30;;;4.82;;
5981;SDS011;3018;48.730;9.336;2024-02-15T00:17:05;7.40;;;4.70;;
5981;SDS011;3018;48.730;9.336;2024-02-15T00:19:32;6.50;;;4.53;;
5981;SDS011;3018;48.730;9.336;2024-02-15T00:21:58;5.40;;;3.78;;
5981;SDS011;3018;48.730;9.336;2024-02-15T00:24:26;5.72;;;4.28;;
5981;SDS011;3018;48.730;9.336;2024-02-15T00:26:52;4.95;;;4.45;;
5981;SDS011;3018;48.730;9.336;2024-02-15T00:29:18;4.95;;;4.05;;
5981;SDS011;3018;48.730;9.336;2024-02-15T00:31:45;9.38;;;4.53;;
5981;SDS011;3018;48.730;9.336;2024-02-15T00:34:12;7.63;;;4.00;;
5981;SDS011;3018;48.730;9.336;2024-02-15T00:36:41;4.32;;;3.88;;
5981;SDS011;3018;48.730;9.336;2024-02-15T00:39:07;4.50;;;3.38;;
5981;SDS011;3018;48.730;9.336;2024-02-15T00:41:35;8.32;;;3.88;;
5981;SDS011;3018;48.730;9.336;2024-02-15T00:44:01;4.32;;;3.70;;
5981;SDS011;3018;48.730;9.336;2024-02-15T00:46:28;3.60;;;3.28;;
5981;SDS011;3018;48.730;9.336;2024-02-15T00:48:55;5.22;;;3.85;;
5981;SDS011;3018;48.730;9.336;2024-02-15T00:51:22;4.63;;;3.92;;
5981;SDS011;3018;48.730;9.336;2024-02-15T00:53:49;10.35;;;3.88;;
5981;SDS011;3018;48.730;9.336;2024-02-15T00:56:15;5.05;;;3.60;;
5981;SDS011;3018;48.730;9.336;2024-02-15T00:58:43;6.45;;;3.90;;
5981;SDS011;3018;48.730;9.336;2024-02-15T01:01:10;7.90;;;4.53;;
5981;SDS011;3018;48.730;9.336;2024-02-15T01:03:36;7.10;;;4.90;;
5981;SDS011;3018;48.730;9.336;2024-02-15T01:06:03;6.00;;;5.00;;
5981;SDS011;3018;48.730;9.336;2024-02-15T01:08:30;5.22;;;4.75;;
5981;SDS011;3018;48.730;9.336;2024-02-15T01:10:55;5.85;;;4.45;;
5981;SDS011;3018;48.730;9.336;2024-02-15T01:13:22;9.80;;;4.88;;
5981;SDS011;3018;48.730;9.336;2024-02-15T01:15:50;5.38;;;4.53;;
5981;SDS011;3018;48.730;9.336;2024-02-15T01:18:16;6.18;;;4.90;;
5981;SDS011;3018;48.730;9.336;2024-02-15T01:20:42;4.70;;;4.30;;
5981;SDS011;3018;48.730;9.336;2024-02-15T01:23:09;5.15;;;4.18;;
5981;SDS011;3018;48.730;9.336;2024-02-15T01:25:36;3.45;;;3.17;;
5981;SDS011;3018;48.730;9.336;2024-02-15T01:28:02;5.20;;;3.60;;
5981;SDS011;3018;48.730;9.336;2024-02-15T01:30:29;2.78;;;2.67;;
5981;SDS011;3018;48.730;9.336;2024-02-15T01:32:58;2.95;;;2.75;;
5981;SDS011;3018;48.730;9.336;2024-02-15T01:35:25;5.50;;;3.45;;
5981;SDS011;3018;48.730;9.336;2024-02-15T01:37:51;3.53;;;3.25;;
5981;SDS011;3018;48.730;9.336;2024-02-15T01:40:17;3.88;;;3.47;;
5981;SDS011;3018;48.730;9.336;2024-02-15T01:42:44;3.83;;;3.50;;
5981;SDS011;3018;48.730;9.336;2024-02-15T01:45:10;4.93;;;3.42;;
5981;SDS011;3018;48.730;9.336;2024-02-15T01:47:37;3.58;;;3.28;;
5981;SDS011;3018;48.730;9.336;2024-02-15T01:50:06;4.25;;;3.58;;
5981;SDS011;3018;48.730;9.336;2024-02-15T01:52:33;5.22;;;4.38;;
5981;SDS011;3018;48.730;9.336;2024-02-15T01:55:00;4.10;;;3.80;;
5981;SDS011;3018;48.730;9.336;2024-02-15T01:57:28;6.35;;;4.07;;
5981;SDS011;3018;48.730;9.336;2024-02-15T01:59:55;7.07;;;3.75;;
5981;SDS011;3018;48.730;9.336;2024-02-15T02:02:21;8.23;;;4.05;;
5981;SDS011;3018;48.730;9.336;2024-02-15T02:04:48;6.25;;;4.15;;
5981;SDS011;3018;48.730;9.336;2024-02-15T02:07:16;4.97;;;4.35;;
5981;SDS011;3018;48.730;9.336;2024-02-15T02:09:42;10.75;;;4.43;;
5981;SDS011;3018;48.730;9.336;2024-02-15T02:12:10;4.30;;;3.88;;
5981;SDS011;3018;48.730;9.336;2024-02-15T02:14:37;8.63;;;4.00;;
5981;SDS011;3018;48.730;9.336;2024-02-15T02:17:12;5.32;;;3.97;;
5981;SDS011;3018;48.730;9.336;2024-02-15T02:19:39;4.22;;;3.83;;
5981;SDS011;3018;48.730;9.336;2024-02-15T02:22:05;4.72;;;3.75;;
5981;SDS011;3018;48.730;9.336;2024-02-15T02:24:36;5.47;;;3.30;;
5981;SDS011;3018;48.730;9.336;2024-02-15T02:27:08;4.13;;;3.72;;
5981;SDS011;3018;48.730;9.336;2024-02-15T02:29:35;4.72;;;3.40;;
5981;SDS011;3018;48.730;9.336;2024-02-15T02:32:01;4.10;;;3.70;;
5981;SDS011;3018;48.730;9.336;2024-02-15T02:34:28;3.15;;;2.97;;
5981;SDS011;3018;48.730;9.336;2024-02-15T02:36:54;3.50;;;3.20;;
5981;SDS011;3018;48.730;9.336;2024-02-15T02:39:20;3.17;;;2.80;;
5981;SDS011;3018;48.730;9.336;2024-02-15T02:41:48;2.92;;;2.72;;
5981;SDS011;3018;48.730;9.336;2024-02-15T02:44:15;2.97;;;2.50;;
5981;SDS011;3018;48.730;9.336;2024-02-15T02:46:41;2.67;;;2.42;;
5981;SDS011;3018;48.730;9.336;2024-02-15T02:49:08;3.67;;;2.85;;
5981;SDS011;3018;48.730;9.336;2024-02-15T02:51:34;3.33;;;2.47;;
5981;SDS011;3018;48.730;9.336;2024-02-15T02:54:00;6.25;;;2.72;;
5981;SDS011;3018;48.730;9.336;2024-02-15T02:56:31;4.05;;;2.50;;
5981;SDS011;3018;48.730;9.336;2024-02-15T02:58:57;2.40;;;2.15;;
5981;SDS011;3018;48.730;9.336;2024-02-15T03:01:25;2.90;;;2.63;;
5981;SDS011;3018;48.730;9.336;2024-02-15T03:03:52;3.95;;;2.72;;
5981;SDS011;3018;48.730;9.336;2024-02-15T03:06:20;2.95;;;2.65;;
5981;SDS011;3018;48.730;9.336;2024-02-15T03:08:46;2.55;;;2.35;;
5981;SDS011;3018;48.730;9.336;2024-02-15T03:11:12;4.45;;;3.10;;
5981;SDS011;3018;48.730;9.336;2024-02-15T03:13:39;4.80;;;2.88;;
5981;SDS011;3018;48.730;9.336;2024-02-15T03:16:07;2.38;;;2.28;;
5981;SDS011;3018;48.730;9.336;2024-02-15T03:18:35;2.63;;;2.42;;
5981;SDS011;3018;48.730;9.336;2024-02-15T03:21:01;3.50;;;2.38;;
5981;SDS011;3018;48.730;9.336;2024-02-15T03:23:28;2.28;;;2.05;;
5981;SDS011;3018;48.730;9.336;2024-02-15T03:25:55;3.30;;;2.05;;
5981;SDS011;3018;48.730;9.336;2024-02-15T03:28:22;2.38;;;2.00;;
5981;SDS011;3018;48.730;9.336;2024-02-15T03:30:49;2.10;;;2.00;;
5981;SDS011;3018;48.730;9.336;2024-02-15T03:33:16;1.40;;;1.40;;
5981;SDS011;3018;48.730;9.336;2024-02-15T03:35:43;1.73;;;1.60;;
5981;SDS011;3018;48.730;9.336;2024-02-15T03:38:10;1.58;;;1.30;;
5981;SDS011;3018;48.730;9.336;2024-02-15T03:40:37;6.43;;;1.92;;
5981;SDS011;3018;48.730;9.336;2024-02-15T03:43:05;2.33;;;1.50;;
5981;SDS011;3018;48.730;9.336;2024-02-15T03:45:33;1.58;;;1.48;;
5981;SDS011;3018;48.730;9.336;2024-02-15T03:48:00;2.40;;;1.55;;
5981;SDS011;3018;48.730;9.336;2024-02-15T03:50:26;1.90;;;1.30;;
5981;SDS011;3018;48.730;9.336;2024-02-15T03:52:55;2.92;;;1.40;;
5981;SDS011;3018;48.730;9.336;2024-02-15T03:55:21;3.45;;;1.80;;
5981;SDS011;3018;48.730;9.336;2024-02-15T03:57:49;1.88;;;1.77;;
5981;SDS011;3018;48.730;9.336;2024-02-15T04:00:15;2.42;;;1.50;;
5981;SDS011;3018;48.730;9.336;2024-02-15T04:02:45;2.28;;;1.90;;
5981;SDS011;3018;48.730;9.336;2024-02-15T04:05:12;2.40;;;1.70;;
5981;SDS011;3018;48.730;9.336;2024-02-15T04:07:39;4.70;;;1.95;;
5981;SDS011;3018;48.730;9.336;2024-02-15T04:10:07;1.90;;;1.77;;
5981;SDS011;3018;48.730;9.336;2024-02-15T04:12:34;3.22;;;2.05;;
5981;SDS011;3018;48.730;9.336;2024-02-15T04:15:00;6.30;;;2.25;;
5981;SDS011;3018;48.730;9.336;2024-02-15T04:17:30;3.17;;;1.95;;
5981;SDS011;3018;48.730;9.336;2024-02-15T04:19:59;2.25;;;1.98;;
5981;SDS011;3018;48.730;9.336;2024-02-15T04:22:26;4.43;;;2.00;;
5981;SDS011;3018;48.730;9.336;2024-02-15T04:24:52;2.80;;;2.00;;
5981;SDS011;3018;48.730;9.336;2024-02-15T04:27:21;4.22;;;1.90;;
5981;SDS011;3018;48.730;9.336;2024-02-15T04:29:47;3.28;;;2.10;;
5981;SDS011;3018;48.730;9.336;2024-02-15T04:32:15;2.05;;;1.92;;
5981;SDS011;3018;48.730;9.336;2024-02-15T04:34:44;2.42;;;2.10;;
5981;SDS011;3018;48.730;9.336;2024-02-15T04:37:11;2.38;;;2.28;;
5981;SDS011;3018;48.730;9.336;2024-02-15T04:39:38;3.30;;;2.50;;
5981;SDS011;3018;48.730;9.336;2024-02-15T04:42:04;6.30;;;2.72;;
5981;SDS011;3018;48.730;9.336;2024-02-15T04:44:37;3.85;;;3.22;;
5981;SDS011;3018;48.730;9.336;2024-02-15T04:47:04;6.10;;;3.15;;
5981;SDS011;3018;48.730;9.336;2024-02-15T04:49:31;3.65;;;3.25;;
5981;SDS011;3018;48.730;9.336;2024-02-15T04:51:57;4.32;;;3.70;;
5981;SDS011;3018;48.730;9.336;2024-02-15T04:54:23;5.28;;;3.92;;
5981;SDS011;3018;48.730;9.336;2024-02-15T04:56:51;4.80;;;3.78;;
5981;SDS011;3018;48.730;9.336;2024-02-15T04:59:19;5.85;;;3.95;;
5981;SDS011;3018;48.730;9.336;2024-02-15T05:01:48;7.05;;;4.10;;
5981;SDS011;3018;48.730;9.336;2024-02-15T05:04:14;5.72;;;3.90;;
5981;SDS011;3018;48.730;9.336;2024-02-15T05:06:40;4.82;;;3.35;;
5981;SDS011;3018;48.730;9.336;2024-02-15T05:09:07;5.28;;;3.35;;
5981;SDS011;3018;48.730;9.336;2024-02-15T05:11:36;4.10;;;3.70;;
5981;SDS011;3018;48.730;9.336;2024-02-15T05:14:03;5.80;;;3.53;;
5981;SDS011;3018;48.730;9.336;2024-02-15T05:16:31;5.15;;;4.57;;
5981;SDS011;3018;48.730;9.336;2024-02-15T05:18:59;4.38;;;3.97;;
5981;SDS011;3018;48.730;9.336;2024-02-15T05:21:25;9.07;;;4.28;;
5981;SDS011;3018;48.730;9.336;2024-02-15T05:23:51;8.15;;;4.28;;
5981;SDS011;3018;48.730;9.336;2024-02-15T05:26:18;4.57;;;4.03;;
5981;SDS011;3018;48.730;9.336;2024-02-15T05:28:48;4.38;;;3.97;;
5981;SDS011;3018;48.730;9.336;2024-02-15T05:31:15;5.10;;;4.22;;
5981;SDS011;3018;48.730;9.336;2024-02-15T05:33:42;5.20;;;3.70;;
5981;SDS011;3018;48.730;9.336;2024-02-15T05:36:10;5.88;;;3.90;;
5981;SDS011;3018;48.730;9.336;2024-02-15T05:38:36;5.55;;;4.15;;
5981;SDS011;3018;48.730;9.336;2024-02-15T05:41:03;5.03;;;3.97;;
5981;SDS011;3018;48.730;9.336;2024-02-15T05:43:29;4.22;;;3.80;;
5981;SDS011;3018;48.730;9.336;2024-02-15T05:45:57;4.80;;;3.53;;
5981;SDS011;3018;48.730;9.336;2024-02-15T05:48:23;5.07;;;4.38;;
5981;SDS011;3018;48.730;9.336;2024-02-15T05:50:50;6.13;;;4.20;;
5981;SDS011;3018;48.730;9.336;2024-02-15T05:53:17;8.98;;;4.32;;
5981;SDS011;3018;48.730;9.336;2024-02-15T05:55:44;7.10;;;4.32;;
5981;SDS011;3018;48.730;9.336;2024-02-15T05:58:10;4.25;;;3.47;;
5981;SDS011;3018;48.730;9.336;2024-02-15T06:00:38;4.68;;;4.18;;
5981;SDS011;3018;48.730;9.336;2024-02-15T06:03:05;4.65;;;4.25;;
5981;SDS011;3018;48.730;9.336;2024-02-15T06:05:34;8.98;;;3.72;;
5981;SDS011;3018;48.730;9.336;2024-02-15T06:08:00;4.90;;;3.58;;
5981;SDS011;3018;48.730;9.336;2024-02-15T06:10:27;4.35;;;4.05;;
5981;SDS011;3018;48.730;9.336;2024-02-15T06:12:56;10.65;;;4.55;;
5981;SDS011;3018;48.730;9.336;2024-02-15T06:15:22;6.47;;;4.32;;
5981;SDS011;3018;48.730;9.336;2024-02-15T06:17:48;9.50;;;4.15;;
5981;SDS011;3018;48.730;9.336;2024-02-15T06:20:15;5.70;;;4.03;;
5981;SDS011;3018;48.730;9.336;2024-02-15T06:22:42;5.50;;;4.28;;
5981;SDS011;3018;48.730;9.336;2024-02-15T06:25:09;5.13;;;4.63;;
5981;SDS011;3018;48.730;9.336;2024-02-15T06:27:37;5.75;;;4.25;;
5981;SDS011;3018;48.730;9.336;2024-02-15T06:30:05;7.13;;;4.38;;
5981;SDS011;3018;48.730;9.336;2024-02-15T06:32:49;5.68;;;4.30;;
5981;SDS011;3018;48.730;9.336;2024-02-15T06:35:33;7.50;;;4.57;;
5981;SDS011;3018;48.730;9.336;2024-02-15T06:38:17;9.77;;;4.80;;
5981;SDS011;3018;48.730;9.336;2024-02-15T06:41:02;13.50;;;4.75;;
5981;SDS011;3018;48.730;9.336;2024-02-15T06:43:29;4.72;;;3.90;;
5981;SDS011;3018;48.730;9.336;2024-02-15T06:45:56;7.35;;;4.65;;
5981;SDS011;3018;48.730;9.336;2024-02-15T06:48:23;9.43;;;4.38;;
5981;SDS011;3018;48.730;9.336;2024-02-15T06:50:50;6.30;;;4.50;;
5981;SDS011;3018;48.730;9.336;2024-02-15T06:53:16;6.78;;;3.60;;
5981;SDS011;3018;48.730;9.336;2024-02-15T06:55:45;5.22;;;4.18;;
5981;SDS011;3018;48.730;9.336;2024-02-15T06:58:11;7.97;;;4.93;;
5981;SDS011;3018;48.730;9.336;2024-02-15T07:00:40;6.72;;;5.07;;
5981;SDS011;3018;48.730;9.336;2024-02-15T07:03:07;8.60;;;4.93;;
5981;SDS011;3018;48.730;9.336;2024-02-15T07:05:34;8.43;;;5.55;;
5981;SDS011;3018;48.730;9.336;2024-02-15T07:08:00;9.35;;;5.28;;
5981;SDS011;3018;48.730;9.336;2024-02-15T07:10:26;10.85;;;4.82;;
5981;SDS011;3018;48.730;9.336;2024-02-15T07:12:53;8.07;;;5.05;;
5981;SDS011;3018;48.730;9.336;2024-02-15T07:15:20;7.75;;;5.03;;
5981;SDS011;3018;48.730;9.336;2024-02-15T07:17:48;7.07;;;4.75;;
5981;SDS011;3018;48.730;9.336;2024-02-15T07:20:14;5.60;;;4.40;;
5981;SDS011;3018;48.730;9.336;2024-02-15T07:22:42;6.05;;;4.30;;
5981;SDS011;3018;48.730;9.336;2024-02-15T07:25:09;6.10;;;4.43;;
5981;SDS011;3018;48.730;9.336;2024-02-15T07:27:35;6.57;;;4.35;;
5981;SDS011;3018;48.730;9.336;2024-02-15T07:30:01;8.38;;;5.07;;
5981;SDS011;3018;48.730;9.336;2024-02-15T07:32:29;8.27;;;4.78;;
5981;SDS011;3018;48.730;9.336;2024-02-15T07:34:58;7.20;;;4.75;;
5981;SDS011;3018;48.730;9.336;2024-02-15T07:37:24;10.70;;;5.38;;
5981;SDS011;3018;48.730;9.336;2024-02-15T07:39:51;7.00;;;5.25;;
5981;SDS011;3018;48.730;9.336;2024-02-15T07:42:17;7.38;;;5.75;;
5981;SDS011;3018;48.730;9.336;2024-02-15T07:44:44;7.38;;;5.03;;
5981;SDS011;3018;48.730;9.336;2024-02-15T07:47:10;7.82;;;5.07;;
5981;SDS011;3018;48.730;9.336;2024-02-15T07:49:36;5.00;;;4.55;;
5981;SDS011;3018;48.730;9.336;2024-02-15T07:52:04;9.07;;;4.80;;
5981;SDS011;3018;48.730;9.336;2024-02-15T07:54:30;6.20;;;4.30;;
5981;SDS011;3018;48.730;9.336;2024-02-15T07:56:58;7.65;;;4.80;;
5981;SDS011;3018;48.730;9.336;2024-02-15T07:59:24;8.05;;;5.20;;
5981;SDS011;3018;48.730;9.336;2024-02-15T08:01:50;8.00;;;4.90;;
5981;SDS011;3018;48.730;9.336;2024-02-15T08:04:17;4.97;;;4.47;;
5981;SDS011;3018;48.730;9.336;2024-02-15T08:06:44;8.13;;;4.78;;
5981;SDS011;3018;48.730;9.336;2024-02-15T08:09:11;10.63;;;4.93;;
5981;SDS011;3018;48.730;9.336;2024-02-15T08:11:38;5.50;;;4.63;;
5981;SDS011;3018;48.730;9.336;2024-02-15T08:14:06;9.70;;;4.03;;
5981;SDS011;3018;48.730;9.336;2024-02-15T08:16:35;7.95;;;3.90;;
5981;SDS011;3018;48.730;9.336;2024-02-15T08:19:01;8.68;;;4.05;;
5981;SDS011;3018;48.730;9.336;2024-02-15T08:21:28;4.45;;;3.80;;
5981;SDS011;3018;48.730;9.336;2024-02-15T08:23:57;4.68;;;3.80;;
5981;SDS011;3018;48.730;9.336;2024-02-15T08:26:25;7.00;;;3.53;;
5981;SDS011;3018;48.730;9.336;2024-02-15T08:28:51;4.22;;;3.78;;
5981;SDS011;3018;48.730;9.336;2024-02-15T08:31:20;8.13;;;3.80;;
5981;SDS011;3018;48.730;9.336;2024-02-15T08:33:47;5.75;;;3.83;;
5981;SDS011;3018;48.730;9.336;2024-02-15T08:36:13;8.05;;;3.90;;
5981;SDS011;3018;48.730;9.336;2024-02-15T08:38:39;6.00;;;3.85;;
5981;SDS011;3018;48.730;9.336;2024-02-15T08:41:06;5.50;;;3.47;;
5981;SDS011;3018;48.730;9.336;2024-02-15T08:43:34;4.38;;;3.97;;
5981;SDS011;3018;48.730;9.336;2024-02-15T08:46:03;10.13;;;3.80;;
5981;SDS011;3018;48.730;9.336;2024-02-15T08:48:30;6.55;;;3.78;;
5981;SDS011;3018;48.730;9.336;2024-02-15T08:50:57;4.72;;;3.20;;
5981;SDS011;3018;48.730;9.336;2024-02-15T08:53:23;6.38;;;2.95;;
5981;SDS011;3018;48.730;9.336;2024-02-15T08:55:49;8.65;;;3.30;;
5981;SDS011;3018;48.730;9.336;2024-02-15T08:58:18;3.00;;;2.72;;
5981;SDS011;3018;48.730;9.336;2024-02-15T09:00:45;3.75;;;3.03;;
5981;SDS011;3018;48.730;9.336;2024-02-15T09:03:12;2.45;;;2.35;;
5981;SDS011;3018;48.730;9.336;2024-02-15T09:05:38;5.47;;;2.33;;
5981;SDS011;3018;48.730;9.336;2024-02-15T09:08:05;3.00;;;2.80;;
5981;SDS011;3018;48.730;9.336;2024-02-15T09:10:32;6.65;;;2.65;;
5981;SDS011;3018;48.730;9.336;2024-02-15T09:12:58;4.78;;;2.45;;
5981;SDS011;3018;48.730;9.336;2024-02-15T09:15:24;3.63;;;2.25;;
5981;SDS011;3018;48.730;9.336;2024-02-15T09:17:52;4.25;;;3.05;;
5981;SDS011;3018;48.730;9.336;2024-02-15T09:20:19;9.35;;;3.08;;
5981;SDS011;3018;48.730;9.336;2024-02-15T09:22:47;3.38;;;2.55;;
5981;SDS011;3018;48.730;9.336;2024-02-15T09:25:13;3.03;;;2.83;;
5981;SDS011;3018;48.730;9.336;2024-02-15T09:27:40;7.05;;;2.90;;
5981;SDS011;3018;48.730;9.336;2024-02-15T09:30:06;3.78;;;2.97;;
5981;SDS011;3018;48.730;9.336;2024-02-15T09:32:34;4.28;;;2.80;;
5981;SDS011;3018;48.730;9.336;2024-02-15T09:35:02;5.75;;;3.10;;
5981;SDS011;3018;48.730;9.336;2024-02-15T09:37:29;4.18;;;2.75;;
5981;SDS011;3018;48.730;9.336;2024-02-15T09:39:58;3.35;;;2.50;;
5981;SDS011;3018;48.730;9.336;2024-02-15T09:42:29;6.53;;;2.75;;
5981;SDS011;3018;48.730;9.336;2024-02-15T09:44:56;4.10;;;2.72;;
5981;SDS011;3018;48.730;9.336;2024-02-15T09:47:22;3.95;;;2.80;;
5981;SDS011;3018;48.730;9.336;2024-02-15T09:49:49;8.02;;;2.65;;
5981;SDS011;3018;48.730;9.336;2024-02-15T09:52:18;5.55;;;2.80;;
5981;SDS011;3018;48.730;9.336;2024-02-15T09:54:44;4.30;;;2.40;;
5981;SDS011;3018;48.730;9.336;2024-02-15T09:57:11;6.47;;;2.53;;
5981;SDS011;3018;48.730;9.336;2024-02-15T09:59:37;4.35;;;2.78;;
5981;SDS011;3018;48.730;9.336;2024-02-15T10:02:04;6.35;;;2.88;;
5981;SDS011;3018;48.730;9.336;2024-02-15T10:04:34;4.20;;;2.40;;
5981;SDS011;3018;48.730;9.336;2024-02-15T10:07:01;4.15;;;2.33;;
5981;SDS011;3018;48.730;9.336;2024-02-15T10:09:28;4.90;;;2.70;;
5981;SDS011;3018;48.730;9.336;2024-02-15T10:11:55;4.80;;;2.10;;
5981;SDS011;3018;48.730;9.336;2024-02-15T10:14:22;2.80;;;2.42;;
5981;SDS011;3018;48.730;9.336;2024-02-15T10:16:48;2.45;;;2.05;;
5981;SDS011;3018;48.730;9.336;2024-02-15T10:19:15;3.85;;;2.03;;
5981;SDS011;3018;48.730;9.336;2024-02-15T10:21:42;3.63;;;2.05;;
5981;SDS011;3018;48.730;9.336;2024-02-15T10:24:09;3.08;;;1.77;;
5981;SDS011;3018;48.730;9.336;2024-02-15T10:26:36;2.75;;;1.60;;
5981;SDS011;3018;48.730;9.336;2024-02-15T10:29:06;4.55;;;2.10;;
5981;SDS011;3018;48.730;9.336;2024-02-15T10:31:34;6.53;;;2.10;;
5981;SDS011;3018;48.730;9.336;2024-02-15T10:34:02;4.68;;;2.28;;
5981;SDS011;3018;48.730;9.336;2024-02-15T10:36:29;7.18;;;2.38;;
5981;SDS011;3018;48.730;9.336;2024-02-15T10:39:05;5.10;;;2.40;;
5981;SDS011;3018;48.730;9.336;2024-02-15T10:41:37;6.10;;;2.03;;
5981;SDS011;3018;48.730;9.336;2024-02-15T10:44:05;5.68;;;1.85;;
5981;SDS011;3018;48.730;9.336;2024-02-15T10:46:33;1.55;;;1.40;;
5981;SDS011;3018;48.730;9.336;2024-02-15T10:48:59;5.03;;;1.70;;
5981;SDS011;3018;48.730;9.336;2024-02-15T10:51:26;6.13;;;2.22;;
5981;SDS011;3018;48.730;9.336;2024-02-15T10:53:57;5.32;;;1.40;;
5981;SDS011;3018;48.730;9.336;2024-02-15T10:56:26;10.45;;;1.80;;
5981;SDS011;3018;48.730;9.336;2024-02-15T10:58:55;7.45;;;1.67;;
5981;SDS011;3018;48.730;9.336;2024-02-15T11:01:25;2.80;;;1.13;;
5981;SDS011;3018;48.730;9.336;2024-02-15T11:03:56;4.55;;;1.30;;
5981;SDS011;3018;48.730;9.336;2024-02-15T11:06:24;4.25;;;1.00;;
5981;SDS011;3018;48.730;9.336;2024-02-15T11:08:52;3.15;;;1.23;;
5981;SDS011;3018;48.730;9.336;2024-02-15T11:11:19;3.25;;;1.25;;
5981;SDS011;3018;48.730;9.336;2024-02-15T11:13:45;2.92;;;1.42;;
5981;SDS011;3018;48.730;9.336;2024-02-15T11:16:23;1.83;;;1.00;;
5981;SDS011;3018;48.730;9.336;2024-02-15T11:19:05;4.57;;;1.50;;
5981;SDS011;3018;48.730;9.336;2024-02-15T11:24:24;4.43;;;1.02;;
5981;SDS011;3018;48.730;9.336;2024-02-15T11:26:52;7.40;;;1.27;;
5981;SDS011;3018;48.730;9.336;2024-02-15T11:32:09;1.75;;;1.25;;
5981;SDS011;3018;48.730;9.336;2024-02-15T11:34:43;4.22;;;0.88;;
5981;SDS011;3018;48.730;9.336;2024-02-15T11:40:12;3.13;;;1.13;;
5981;SDS011;3018;48.730;9.336;2024-02-15T11:42:39;4.68;;;0.95;;
5981;SDS011;3018;48.730;9.336;2024-02-15T11:45:05;2.78;;;0.90;;
5981;SDS011;3018;48.730;9.336;2024-02-15T11:47:35;4.20;;;1.23;;
5981;SDS011;3018;48.730;9.336;2024-02-15T11:50:03;1.15;;;0.93;;
5981;SDS011;3018;48.730;9.336;2024-02-15T11:52:29;1.60;;;0.80;;
5981;SDS011;3018;48.730;9.336;2024-02-15T11:55:03;3.40;;;0.80;;
5981;SDS011;3018;48.730;9.336;2024-02-15T11:57:30;1.27;;;0.90;;
5981;SDS011;3018;48.730;9.336;2024-02-15T12:00:02;1.08;;;0.77;;
5981;SDS011;3018;48.730;9.336;2024-02-15T12:03:00;1.70;;;0.70;;
5981;SDS011;3018;48.730;9.336;2024-02-15T12:05:44;2.25;;;1.02;;
5981;SDS011;3018;48.730;9.336;2024-02-15T12:08:28;2.70;;;0.90;;
5981;SDS011;3018;48.730;9.336;2024-02-15T12:11:13;4.10;;;1.00;;
5981;SDS011;3018;48.730;9.336;2024-02-15T12:13:57;2.95;;;1.17;;
5981;SDS011;3018;48.730;9.336;2024-02-15T12:16:41;7.10;;;1.40;;
5981;SDS011;3018;48.730;9.336;2024-02-15T12:19:26;6.10;;;1.27;;
5981;SDS011;3018;48.730;9.336;2024-02-15T12:21:53;1.05;;;0.73;;
5981;SDS011;3018;48.730;9.336;2024-02-15T12:24:19;3.13;;;0.73;;
5981;SDS011;3018;48.730;9.336;2024-02-15T12:26:51;2.05;;;0.77;;
5981;SDS011;3018;48.730;9.336;2024-02-15T12:29:17;0.77;;;0.70;;
5981;SDS011;3018;48.730;9.336;2024-02-15T12:31:44;1.08;;;0.95;;
5981;SDS011;3018;48.730;9.336;2024-02-15T12:34:10;1.23;;;0.70;;
5981;SDS011;3018;48.730;9.336;2024-02-15T12:36:39;1.80;;;0.60;;
5981;SDS011;3018;48.730;9.336;2024-02-15T12:39:07;1.10;;;0.77;;
5981;SDS011;3018;48.730;9.336;2024-02-15T12:41:37;0.70;;;0.70;;
5981;SDS011;3018;48.730;9.336;2024-02-15T12:44:05;2.17;;;1.10;;
5981;SDS011;3018;48.730;9.336;2024-02-15T12:46:32;1.55;;;0.95;;
5981;SDS011;3018;48.730;9.336;2024-02-15T12:49:09;4.05;;;1.10;;
5981;SDS011;3018;48.730;9.336;2024-02-15T12:51:39;2.53;;;0.75;;
5981;SDS011;3018;48.730;9.336;2024-02-15T12:54:09;2.58;;;1.10;;
5981;SDS011;3018;48.730;9.336;2024-02-15T12:56:36;1.77;;;0.75;;
5981;SDS011;3018;48.730;9.336;2024-02-15T12:59:02;5.45;;;0.70;;
5981;SDS011;3018;48.730;9.336;2024-02-15T13:01:28;1.05;;;0.85;;
5981;SDS011;3018;48.730;9.336;2024-02-15T13:03:55;0.73;;;0.73;;
5981;SDS011;3018;48.730;9.336;2024-02-15T13:06:21;1.20;;;0.98;;
5981;SDS011;3018;48.730;9.336;2024-02-15T13:08:50;2.53;;;0.88;;
5981;SDS011;3018;48.730;9.336;2024-02-15T13:11:17;1.20;;;0.93;;
5981;SDS011;3018;48.730;9.336;2024-02-15T13:13:43;2.30;;;0.90;;
5981;SDS011;3018;48.730;9.336;2024-02-15T13:16:10;2.72;;;0.90;;
5981;SDS011;3018;48.730;9.336;2024-02-15T13:18:37;1.48;;;0.80;;
5981;SDS011;3018;48.730;9.336;2024-02-15T13:21:04;1.85;;;0.95;;
5981;SDS011;3018;48.730;9.336;2024-02-15T13:23:31;1.50;;;0.98;;
5981;SDS011;3018;48.730;9.336;2024-02-15T13:25:59;2.00;;;1.10;;
5981;SDS011;3018;48.730;9.336;2024-02-15T13:28:29;2.40;;;1.10;;
5981;SDS011;3018;48.730;9.336;2024-02-15T13:30:55;2.63;;;1.10;;
5981;SDS011;3018;48.730;9.336;2024-02-15T13:33:21;2.97;;;1.02;;
5981;SDS011;3018;48.730;9.336;2024-02-15T13:35:48;1.67;;;1.10;;
5981;SDS011;3018;48.730;9.336;2024-02-15T13:38:15;4.10;;;1.20;;
5981;SDS011;3018;48.730;9.336;2024-02-15T13:40:47;2.70;;;1.20;;
5981;SDS011;3018;48.730;9.336;2024-02-15T13:43:17;4.85;;;1.17;;
5981;SDS011;3018;48.730;9.336;2024-02-15T13:45:45;1.60;;;0.95;;
5981;SDS011;3018;48.730;9.336;2024-02-15T13:48:11;4.22;;;1.20;;
5981;SDS011;3018;48.730;9.336;2024-02-15T13:50:40;4.47;;;1.48;;
5981;SDS011;3018;48.730;9.336;2024-02-15T13:53:06;2.53;;;1.10;;
5981;SDS011;3018;48.730;9.336;2024-02-15T13:55:34;5.05;;;1.17;;
5981;SDS011;3018;48.730;9.336;2024-02-15T13:58:01;3.13;;;0.98;;
5981;SDS011;3018;48.730;9.336;2024-02-15T14:00:28;4.75;;;1.17;;
5981;SDS011;3018;48.730;9.336;2024-02-15T14:02:59;2.83;;;1.15;;
5981;SDS011;3018;48.730;9.336;2024-02-15T14:05:26;5.10;;;1.30;;
5981;SDS011;3018;48.730;9.336;2024-02-15T14:07:54;0.93;;;0.82;;
5981;SDS011;3018;48.730;9.336;2024-02-15T14:10:20;5.80;;;1.48;;
5981;SDS011;3018;48.730;9.336;2024-02-15T14:12:46;9.52;;;1.48;;
5981;SDS011;3018;48.730;9.336;2024-02-15T14:15:13;2.55;;;1.00;;
5981;SDS011;3018;48.730;9.336;2024-02-15T14:17:41;4.03;;;1.20;;
5981;SDS011;3018;48.730;9.336;2024-02-15T14:20:09;3.13;;;1.50;;
5981;SDS011;3018;48.730;9.336;2024-02-15T14:22:38;3.88;;;1.20;;
5981;SDS011;3018;48.730;9.336;2024-02-15T14:25:05;4.22;;;1.52;;
5981;SDS011;3018;48.730;9.336;2024-02-15T14:27:32;5.30;;;0.90;;
5981;SDS011;3018;48.730;9.336;2024-02-15T14:29:58;2.72;;;0.70;;
5981;SDS011;3018;48.730;9.336;2024-02-15T14:32:44;1.35;;;0.70;;
5981;SDS011;3018;48.730;9.336;2024-02-15T14:35:28;3.90;;;1.00;;
5981;SDS011;3018;48.730;9.336;2024-02-15T14:37:55;2.90;;;0.70;;
5981;SDS011;3018;48.730;9.336;2024-02-15T14:40:23;1.67;;;0.98;;
5981;SDS011;3018;48.730;9.336;2024-02-15T14:42:49;1.30;;;0.70;;
5981;SDS011;3018;48.730;9.336;2024-02-15T14:45:15;1.40;;;0.80;;
5981;SDS011;3018;48.730;9.336;2024-02-15T14:47:41;3.08;;;1.25;;
5981;SDS011;3018;48.730;9.336;2024-02-15T14:50:09;2.05;;;1.00;;
5981;SDS011;3018;48.730;9.336;2024-02-15T14:52:38;2.15;;;1.00;;
5981;SDS011;3018;48.730;9.336;2024-02-15T14:55:05;2.40;;;0.77;;
5981;SDS011;3018;48.730;9.336;2024-02-15T14:57:32;2.33;;;0.90;;
5981;SDS011;3018;48.730;9.336;2024-02-15T14:59:59;2.00;;;0.82;;
5981;SDS011;3018;48.730;9.336;2024-02-15T15:02:25;2.22;;;0.98;;
5981;SDS011;3018;48.730;9.336;2024-02-15T15:04:51;1.27;;;1.00;;
5981;SDS011;3018;48.730;9.336;2024-02-15T15:07:45;1.25;;;0.85;;
5981;SDS011;3018;48.730;9.336;2024-02-15T15:10:29;1.13;;;0.90;;
5981;SDS011;3018;48.730;9.336;2024-02-15T15:13:18;1.85;;;0.98;;
5981;SDS011;3018;48.730;9.336;2024-02-15T15:15:44;5.60;;;1.48;;
5981;SDS011;3018;48.730;9.336;2024-02-15T15:18:11;4.82;;;1.50;;
5981;SDS011;3018;48.730;9.336;2024-02-15T15:20:38;4.10;;;1.33;;
5981;SDS011;3018;48.730;9.336;2024-02-15T15:23:06;2.35;;;0.98;;
5981;SDS011;3018;48.730;9.336;2024-02-15T15:25:32;1.15;;;1.05;;
5981;SDS011;3018;48.730;9.336;2024-02-15T15:27:58;3.67;;;0.90;;
5981;SDS011;3018;48.730;9.336;2024-02-15T15:30:25;2.97;;;0.95;;